sensor_id;sensor_type;location;lat;lon;timestamp;P1;durP1;ratioP1;P2;durP2;ratioP2
21901;SDS011;11115;46.038;14.612;2022-12-07T00:01:28;8.10;;;4.00;;
21901;SDS011;11115;46.038;14.612;2022-12-07T00:03:59;6.43;;;3.33;;
21901;SDS011;11115;46.038;14.612;2022-12-07T00:06:32;4.03;;;2.63;;
21901;SDS011;11115;46.038;14.612;2022-12-07T00:09:01;5.93;;;3.40;;
21901;SDS011;11115;46.038;14.612;2022-12-07T00:11:30;3.80;;;2.53;;
21901;SDS011;11115;46.038;14.612;2022-12-07T00:14:00;13.20;;;3.83;;
21901;SDS011;11115;46.038;14.612;2022-12-07T00:16:30;6.93;;;3.65;;
21901;SDS011;11115;46.038;14.612;2022-12-07T00:19:00;6.77;;;3.10;;
21901;SDS011;11115;46.038;14.612;2022-12-07T00:21:29;6.27;;;3.13;;
21901;SDS011;11115;46.038;14.612;2022-12-07T00:23:59;9.73;;;2.77;;
21901;SDS011;11115;46.038;14.612;2022-12-07T00:26:29;12.60;;;4.93;;
21901;SDS011;11115;46.038;14.612;2022-12-07T00:29:04;11.20;;;4.20;;
21901;SDS011;11115;46.038;14.612;2022-12-07T00:31:35;4.60;;;2.77;;
21901;SDS011;11115;46.038;14.612;2022-12-07T00:34:06;4.68;;;2.78;;
21901;SDS011;11115;46.038;14.612;2022-12-07T00:36:34;5.23;;;3.10;;
21901;SDS011;11115;46.038;14.612;2022-12-07T00:39:02;6.80;;;3.10;;
21901;SDS011;11115;46.038;14.612;2022-12-07T00:41:30;4.53;;;3.00;;
21901;SDS011;11115;46.038;14.612;2022-12-07T00:43:58;6.30;;;2.83;;
21901;SDS011;11115;46.038;14.612;2022-12-07T00:46:26;7.70;;;3.70;;
21901;SDS011;11115;46.038;14.612;2022-12-07T00:48:54;7.07;;;3.30;;
21901;SDS011;11115;46.038;14.612;2022-12-07T00:51:22;8.13;;;4.03;;
21901;SDS011;11115;46.038;14.612;2022-12-07T00:53:51;7.93;;;2.97;;
21901;SDS011;11115;46.038;14.612;2022-12-07T00:56:24;5.50;;;3.30;;
21901;SDS011;11115;46.038;14.612;2022-12-07T00:58:58;11.23;;;3.57;;
21901;SDS011;11115;46.038;14.612;2022-12-07T01:01:29;8.43;;;3.27;;
21901;SDS011;11115;46.038;14.612;2022-12-07T01:03:59;4.38;;;2.35;;
21901;SDS011;11115;46.038;14.612;2022-12-07T01:06:28;8.97;;;3.10;;
21901;SDS011;11115;46.038;14.612;2022-12-07T01:08:56;6.47;;;3.80;;
21901;SDS011;11115;46.038;14.612;2022-12-07T01:11:25;6.53;;;3.10;;
21901;SDS011;11115;46.038;14.612;2022-12-07T01:13:56;8.68;;;3.45;;
21901;SDS011;11115;46.038;14.612;2022-12-07T01:16:26;5.70;;;2.50;;
21901;SDS011;11115;46.038;14.612;2022-12-07T01:18:56;6.63;;;3.30;;
21901;SDS011;11115;46.038;14.612;2022-12-07T01:21:27;8.80;;;3.90;;
21901;SDS011;11115;46.038;14.612;2022-12-07T01:23:59;10.00;;;3.47;;
21901;SDS011;11115;46.038;14.612;2022-12-07T01:26:26;10.07;;;4.27;;
21901;SDS011;11115;46.038;14.612;2022-12-07T01:28:54;6.70;;;2.87;;
21901;SDS011;11115;46.038;14.612;2022-12-07T01:31:25;5.17;;;3.53;;
21901;SDS011;11115;46.038;14.612;2022-12-07T01:33:55;7.03;;;4.00;;
21901;SDS011;11115;46.038;14.612;2022-12-07T01:36:26;9.40;;;2.70;;
21901;SDS011;11115;46.038;14.612;2022-12-07T01:38:59;5.73;;;3.67;;
21901;SDS011;11115;46.038;14.612;2022-12-07T01:41:30;9.20;;;3.15;;
21901;SDS011;11115;46.038;14.612;2022-12-07T01:46:36;6.17;;;3.60;;
21901;SDS011;11115;46.038;14.612;2022-12-07T01:49:04;4.00;;;2.80;;
21901;SDS011;11115;46.038;14.612;2022-12-07T01:54:04;4.23;;;2.00;;
21901;SDS011;11115;46.038;14.612;2022-12-07T01:56:33;5.47;;;2.73;;
21901;SDS011;11115;46.038;14.612;2022-12-07T01:59:01;4.70;;;2.37;;
21901;SDS011;11115;46.038;14.612;2022-12-07T02:01:29;4.47;;;2.97;;
21901;SDS011;11115;46.038;14.612;2022-12-07T02:03:57;4.90;;;2.30;;
21901;SDS011;11115;46.038;14.612;2022-12-07T02:06:25;6.10;;;3.40;;
21901;SDS011;11115;46.038;14.612;2022-12-07T02:08:53;3.87;;;2.27;;
21901;SDS011;11115;46.038;14.612;2022-12-07T02:11:21;4.20;;;2.37;;
21901;SDS011;11115;46.038;14.612;2022-12-07T02:13:49;4.50;;;2.50;;
21901;SDS011;11115;46.038;14.612;2022-12-07T02:16:25;3.77;;;2.27;;
21901;SDS011;11115;46.038;14.612;2022-12-07T02:21:51;4.83;;;2.53;;
21901;SDS011;11115;46.038;14.612;2022-12-07T02:24:36;4.30;;;2.40;;
21901;SDS011;11115;46.038;14.612;2022-12-07T02:30:27;6.47;;;2.63;;
21901;SDS011;11115;46.038;14.612;2022-12-07T02:33:01;7.90;;;2.67;;
21901;SDS011;11115;46.038;14.612;2022-12-07T02:35:42;4.50;;;2.80;;
21901;SDS011;11115;46.038;14.612;2022-12-07T02:38:20;7.28;;;2.92;;
21901;SDS011;11115;46.038;14.612;2022-12-07T02:41:04;3.73;;;2.40;;
21901;SDS011;11115;46.038;14.612;2022-12-07T02:43:44;4.50;;;2.70;;
21901;SDS011;11115;46.038;14.612;2022-12-07T02:46:17;9.50;;;3.57;;
21901;SDS011;11115;46.038;14.612;2022-12-07T02:48:48;2.90;;;2.00;;
21901;SDS011;11115;46.038;14.612;2022-12-07T02:51:17;2.63;;;1.70;;
21901;SDS011;11115;46.038;14.612;2022-12-07T02:53:46;5.40;;;2.50;;
21901;SDS011;11115;46.038;14.612;2022-12-07T02:56:20;9.13;;;3.43;;
21901;SDS011;11115;46.038;14.612;2022-12-07T03:02:00;3.50;;;2.23;;
21901;SDS011;11115;46.038;14.612;2022-12-07T03:10:24;5.90;;;2.63;;
21901;SDS011;11115;46.038;14.612;2022-12-07T03:13:05;5.40;;;2.37;;
21901;SDS011;11115;46.038;14.612;2022-12-07T03:15:59;3.33;;;1.90;;
21901;SDS011;11115;46.038;14.612;2022-12-07T03:18:30;3.00;;;1.70;;
21901;SDS011;11115;46.038;14.612;2022-12-07T03:21:04;3.50;;;1.90;;
21901;SDS011;11115;46.038;14.612;2022-12-07T03:23:37;6.07;;;1.87;;
21901;SDS011;11115;46.038;14.612;2022-12-07T03:26:08;8.17;;;1.90;;
21901;SDS011;11115;46.038;14.612;2022-12-07T03:28:40;4.40;;;2.43;;
21901;SDS011;11115;46.038;14.612;2022-12-07T03:31:22;4.63;;;2.03;;
21901;SDS011;11115;46.038;14.612;2022-12-07T03:34:02;1.90;;;1.80;;
21901;SDS011;11115;46.038;14.612;2022-12-07T03:36:58;4.03;;;2.40;;
21901;SDS011;11115;46.038;14.612;2022-12-07T03:39:36;2.40;;;1.67;;
21901;SDS011;11115;46.038;14.612;2022-12-07T03:42:07;3.70;;;2.07;;
21901;SDS011;11115;46.038;14.612;2022-12-07T03:44:37;3.90;;;2.37;;
21901;SDS011;11115;46.038;14.612;2022-12-07T03:47:13;4.90;;;2.47;;
21901;SDS011;11115;46.038;14.612;2022-12-07T03:49:55;3.60;;;1.63;;
21901;SDS011;11115;46.038;14.612;2022-12-07T03:55:29;5.40;;;1.80;;
21901;SDS011;11115;46.038;14.612;2022-12-07T03:58:02;1.87;;;1.40;;
21901;SDS011;11115;46.038;14.612;2022-12-07T04:00:33;5.47;;;2.43;;
21901;SDS011;11115;46.038;14.612;2022-12-07T04:03:01;2.47;;;1.93;;
21901;SDS011;11115;46.038;14.612;2022-12-07T04:05:29;10.63;;;2.30;;
21901;SDS011;11115;46.038;14.612;2022-12-07T04:07:57;2.93;;;1.73;;
21901;SDS011;11115;46.038;14.612;2022-12-07T04:10:25;1.17;;;1.07;;
21901;SDS011;11115;46.038;14.612;2022-12-07T04:12:53;4.33;;;1.73;;
21901;SDS011;11115;46.038;14.612;2022-12-07T04:15:20;4.03;;;2.30;;
21901;SDS011;11115;46.038;14.612;2022-12-07T04:17:48;4.47;;;2.10;;
21901;SDS011;11115;46.038;14.612;2022-12-07T04:20:16;5.03;;;2.53;;
21901;SDS011;11115;46.038;14.612;2022-12-07T04:22:44;3.00;;;2.10;;
21901;SDS011;11115;46.038;14.612;2022-12-07T04:25:12;3.20;;;2.50;;
21901;SDS011;11115;46.038;14.612;2022-12-07T04:27:40;3.17;;;2.03;;
21901;SDS011;11115;46.038;14.612;2022-12-07T04:30:07;4.73;;;2.37;;
21901;SDS011;11115;46.038;14.612;2022-12-07T04:32:35;7.90;;;1.97;;
21901;SDS011;11115;46.038;14.612;2022-12-07T04:35:03;5.20;;;2.23;;
21901;SDS011;11115;46.038;14.612;2022-12-07T04:37:32;3.63;;;2.50;;
21901;SDS011;11115;46.038;14.612;2022-12-07T04:40:00;6.47;;;2.87;;
21901;SDS011;11115;46.038;14.612;2022-12-07T04:42:28;3.13;;;2.00;;
21901;SDS011;11115;46.038;14.612;2022-12-07T04:44:56;3.63;;;2.20;;
21901;SDS011;11115;46.038;14.612;2022-12-07T04:47:23;3.80;;;2.10;;
21901;SDS011;11115;46.038;14.612;2022-12-07T04:49:51;3.63;;;2.27;;
21901;SDS011;11115;46.038;14.612;2022-12-07T04:52:19;3.83;;;2.70;;
21901;SDS011;11115;46.038;14.612;2022-12-07T04:54:46;2.10;;;1.73;;
21901;SDS011;11115;46.038;14.612;2022-12-07T04:57:14;4.13;;;1.90;;
21901;SDS011;11115;46.038;14.612;2022-12-07T04:59:42;4.73;;;2.50;;
21901;SDS011;11115;46.038;14.612;2022-12-07T05:02:11;2.27;;;1.83;;
21901;SDS011;11115;46.038;14.612;2022-12-07T05:04:39;4.03;;;2.03;;
21901;SDS011;11115;46.038;14.612;2022-12-07T05:07:07;2.20;;;1.50;;
21901;SDS011;11115;46.038;14.612;2022-12-07T05:09:34;3.23;;;1.27;;
21901;SDS011;11115;46.038;14.612;2022-12-07T05:12:02;2.53;;;1.97;;
21901;SDS011;11115;46.038;14.612;2022-12-07T05:14:30;2.40;;;2.03;;
21901;SDS011;11115;46.038;14.612;2022-12-07T05:16:57;4.07;;;2.23;;
21901;SDS011;11115;46.038;14.612;2022-12-07T05:19:25;3.07;;;2.00;;
21901;SDS011;11115;46.038;14.612;2022-12-07T05:21:53;3.83;;;2.00;;
21901;SDS011;11115;46.038;14.612;2022-12-07T05:24:21;5.67;;;2.47;;
21901;SDS011;11115;46.038;14.612;2022-12-07T05:26:49;3.87;;;2.03;;
21901;SDS011;11115;46.038;14.612;2022-12-07T05:29:16;2.43;;;2.17;;
21901;SDS011;11115;46.038;14.612;2022-12-07T05:31:44;2.43;;;1.57;;
21901;SDS011;11115;46.038;14.612;2022-12-07T05:34:12;3.17;;;1.80;;
21901;SDS011;11115;46.038;14.612;2022-12-07T05:36:40;8.37;;;1.57;;
21901;SDS011;11115;46.038;14.612;2022-12-07T05:39:08;2.33;;;1.20;;
21901;SDS011;11115;46.038;14.612;2022-12-07T05:41:36;1.83;;;1.20;;
21901;SDS011;11115;46.038;14.612;2022-12-07T05:44:21;1.77;;;1.27;;
21901;SDS011;11115;46.038;14.612;2022-12-07T05:46:49;1.87;;;1.37;;
21901;SDS011;11115;46.038;14.612;2022-12-07T05:49:17;1.97;;;1.60;;
21901;SDS011;11115;46.038;14.612;2022-12-07T05:51:44;1.00;;;0.80;;
21901;SDS011;11115;46.038;14.612;2022-12-07T05:54:12;2.60;;;2.00;;
21901;SDS011;11115;46.038;14.612;2022-12-07T05:56:40;2.77;;;0.87;;
21901;SDS011;11115;46.038;14.612;2022-12-07T05:59:08;1.60;;;0.83;;
21901;SDS011;11115;46.038;14.612;2022-12-07T06:01:57;3.43;;;1.50;;
21901;SDS011;11115;46.038;14.612;2022-12-07T06:04:32;1.63;;;1.07;;
21901;SDS011;11115;46.038;14.612;2022-12-07T06:07:01;3.53;;;1.97;;
21901;SDS011;11115;46.038;14.612;2022-12-07T06:09:29;4.07;;;1.83;;
21901;SDS011;11115;46.038;14.612;2022-12-07T06:11:57;2.77;;;1.47;;
21901;SDS011;11115;46.038;14.612;2022-12-07T06:14:44;1.53;;;1.10;;
21901;SDS011;11115;46.038;14.612;2022-12-07T06:17:12;1.33;;;1.20;;
21901;SDS011;11115;46.038;14.612;2022-12-07T06:19:40;2.00;;;1.17;;
21901;SDS011;11115;46.038;14.612;2022-12-07T06:22:09;2.77;;;1.63;;
21901;SDS011;11115;46.038;14.612;2022-12-07T06:24:38;1.53;;;1.30;;
21901;SDS011;11115;46.038;14.612;2022-12-07T06:27:06;3.20;;;1.10;;
21901;SDS011;11115;46.038;14.612;2022-12-07T06:29:33;2.87;;;1.27;;
21901;SDS011;11115;46.038;14.612;2022-12-07T06:32:02;3.77;;;1.83;;
21901;SDS011;11115;46.038;14.612;2022-12-07T06:34:31;2.47;;;1.77;;
21901;SDS011;11115;46.038;14.612;2022-12-07T06:36:59;14.83;;;2.50;;
21901;SDS011;11115;46.038;14.612;2022-12-07T06:39:27;2.70;;;1.87;;
21901;SDS011;11115;46.038;14.612;2022-12-07T06:41:56;3.50;;;1.83;;
21901;SDS011;11115;46.038;14.612;2022-12-07T06:44:24;1.60;;;1.27;;
21901;SDS011;11115;46.038;14.612;2022-12-07T06:46:53;1.77;;;1.50;;
21901;SDS011;11115;46.038;14.612;2022-12-07T06:49:40;2.93;;;1.70;;
21901;SDS011;11115;46.038;14.612;2022-12-07T06:52:08;5.47;;;1.73;;
21901;SDS011;11115;46.038;14.612;2022-12-07T06:54:36;2.00;;;1.27;;
21901;SDS011;11115;46.038;14.612;2022-12-07T06:57:04;1.63;;;1.33;;
21901;SDS011;11115;46.038;14.612;2022-12-07T06:59:32;1.27;;;1.17;;
21901;SDS011;11115;46.038;14.612;2022-12-07T07:01:59;1.77;;;1.67;;
21901;SDS011;11115;46.038;14.612;2022-12-07T07:04:27;1.33;;;1.03;;
21901;SDS011;11115;46.038;14.612;2022-12-07T07:06:55;5.70;;;2.10;;
21901;SDS011;11115;46.038;14.612;2022-12-07T07:09:25;1.10;;;1.03;;
21901;SDS011;11115;46.038;14.612;2022-12-07T07:11:53;1.40;;;1.17;;
21901;SDS011;11115;46.038;14.612;2022-12-07T07:14:21;1.07;;;0.70;;
21901;SDS011;11115;46.038;14.612;2022-12-07T07:16:49;1.80;;;1.30;;
21901;SDS011;11115;46.038;14.612;2022-12-07T07:19:17;1.57;;;1.30;;
21901;SDS011;11115;46.038;14.612;2022-12-07T07:21:45;4.97;;;2.03;;
21901;SDS011;11115;46.038;14.612;2022-12-07T07:24:12;5.43;;;1.50;;
21901;SDS011;11115;46.038;14.612;2022-12-07T07:26:40;5.90;;;1.80;;
21901;SDS011;11115;46.038;14.612;2022-12-07T07:29:08;1.50;;;1.37;;
21901;SDS011;11115;46.038;14.612;2022-12-07T07:31:36;2.50;;;1.30;;
21901;SDS011;11115;46.038;14.612;2022-12-07T07:34:03;1.50;;;1.37;;
21901;SDS011;11115;46.038;14.612;2022-12-07T07:36:32;3.57;;;1.47;;
21901;SDS011;11115;46.038;14.612;2022-12-07T07:38:59;4.43;;;2.13;;
21901;SDS011;11115;46.038;14.612;2022-12-07T07:41:27;9.90;;;2.20;;
21901;SDS011;11115;46.038;14.612;2022-12-07T07:43:55;6.57;;;2.07;;
21901;SDS011;11115;46.038;14.612;2022-12-07T07:46:22;5.40;;;1.87;;
21901;SDS011;11115;46.038;14.612;2022-12-07T07:48:50;4.67;;;1.57;;
21901;SDS011;11115;46.038;14.612;2022-12-07T07:51:18;2.43;;;1.57;;
21901;SDS011;11115;46.038;14.612;2022-12-07T07:53:46;1.73;;;1.63;;
21901;SDS011;11115;46.038;14.612;2022-12-07T07:56:13;2.43;;;1.70;;
21901;SDS011;11115;46.038;14.612;2022-12-07T07:58:41;1.63;;;0.90;;
21901;SDS011;11115;46.038;14.612;2022-12-07T08:01:09;2.37;;;1.50;;
21901;SDS011;11115;46.038;14.612;2022-12-07T08:03:37;3.07;;;0.87;;
21901;SDS011;11115;46.038;14.612;2022-12-07T08:06:05;2.23;;;1.30;;
21901;SDS011;11115;46.038;14.612;2022-12-07T08:08:33;1.20;;;1.10;;
21901;SDS011;11115;46.038;14.612;2022-12-07T08:11:04;2.23;;;1.20;;
21901;SDS011;11115;46.038;14.612;2022-12-07T08:13:32;2.92;;;1.15;;
21901;SDS011;11115;46.038;14.612;2022-12-07T08:16:03;3.50;;;0.83;;
21901;SDS011;11115;46.038;14.612;2022-12-07T08:18:36;1.63;;;1.20;;
21901;SDS011;11115;46.038;14.612;2022-12-07T08:21:09;8.23;;;1.47;;
21901;SDS011;11115;46.038;14.612;2022-12-07T08:23:39;2.37;;;1.63;;
21901;SDS011;11115;46.038;14.612;2022-12-07T08:26:08;3.07;;;2.00;;
21901;SDS011;11115;46.038;14.612;2022-12-07T08:28:37;5.53;;;2.67;;
21901;SDS011;11115;46.038;14.612;2022-12-07T08:31:07;2.83;;;1.20;;
21901;SDS011;11115;46.038;14.612;2022-12-07T08:33:39;3.77;;;2.30;;
21901;SDS011;11115;46.038;14.612;2022-12-07T08:36:08;12.17;;;3.23;;
21901;SDS011;11115;46.038;14.612;2022-12-07T08:38:38;7.60;;;2.13;;
21901;SDS011;11115;46.038;14.612;2022-12-07T08:41:16;3.30;;;1.80;;
21901;SDS011;11115;46.038;14.612;2022-12-07T08:43:44;7.50;;;1.83;;
21901;SDS011;11115;46.038;14.612;2022-12-07T08:46:17;1.87;;;1.47;;
21901;SDS011;11115;46.038;14.612;2022-12-07T08:48:53;5.10;;;2.03;;
21901;SDS011;11115;46.038;14.612;2022-12-07T08:51:29;3.03;;;1.40;;
21901;SDS011;11115;46.038;14.612;2022-12-07T08:53:57;2.27;;;1.67;;
21901;SDS011;11115;46.038;14.612;2022-12-07T08:56:27;7.37;;;1.97;;
21901;SDS011;11115;46.038;14.612;2022-12-07T08:58:55;1.50;;;1.00;;
21901;SDS011;11115;46.038;14.612;2022-12-07T09:01:25;6.17;;;2.30;;
21901;SDS011;11115;46.038;14.612;2022-12-07T09:03:53;3.77;;;1.93;;
21901;SDS011;11115;46.038;14.612;2022-12-07T09:06:21;2.07;;;1.03;;
21901;SDS011;11115;46.038;14.612;2022-12-07T09:08:50;6.33;;;1.37;;
21901;SDS011;11115;46.038;14.612;2022-12-07T09:11:20;9.88;;;3.13;;
21901;SDS011;11115;46.038;14.612;2022-12-07T09:13:54;6.33;;;2.10;;
21901;SDS011;11115;46.038;14.612;2022-12-07T09:16:22;14.13;;;3.30;;
21901;SDS011;11115;46.038;14.612;2022-12-07T09:18:50;3.77;;;2.03;;
21901;SDS011;11115;46.038;14.612;2022-12-07T09:21:18;2.43;;;1.47;;
21901;SDS011;11115;46.038;14.612;2022-12-07T09:23:46;5.23;;;1.90;;
21901;SDS011;11115;46.038;14.612;2022-12-07T09:26:13;5.67;;;2.03;;
21901;SDS011;11115;46.038;14.612;2022-12-07T09:28:41;3.90;;;1.93;;
21901;SDS011;11115;46.038;14.612;2022-12-07T09:31:09;4.40;;;1.37;;
21901;SDS011;11115;46.038;14.612;2022-12-07T09:33:54;1.93;;;1.60;;
21901;SDS011;11115;46.038;14.612;2022-12-07T09:36:26;6.20;;;2.10;;
21901;SDS011;11115;46.038;14.612;2022-12-07T09:38:55;4.00;;;1.80;;
21901;SDS011;11115;46.038;14.612;2022-12-07T09:41:23;6.47;;;2.00;;
21901;SDS011;11115;46.038;14.612;2022-12-07T09:43:53;3.77;;;1.73;;
21901;SDS011;11115;46.038;14.612;2022-12-07T09:46:30;2.53;;;2.03;;
21901;SDS011;11115;46.038;14.612;2022-12-07T09:49:04;2.63;;;1.53;;
21901;SDS011;11115;46.038;14.612;2022-12-07T09:51:32;2.43;;;1.57;;
21901;SDS011;11115;46.038;14.612;2022-12-07T09:54:00;3.97;;;1.73;;
21901;SDS011;11115;46.038;14.612;2022-12-07T09:56:29;5.77;;;2.07;;
21901;SDS011;11115;46.038;14.612;2022-12-07T09:58:58;4.43;;;2.03;;
21901;SDS011;11115;46.038;14.612;2022-12-07T10:01:30;5.13;;;2.20;;
21901;SDS011;11115;46.038;14.612;2022-12-07T10:04:09;6.85;;;1.95;;
21901;SDS011;11115;46.038;14.612;2022-12-07T10:06:39;3.63;;;1.97;;
21901;SDS011;11115;46.038;14.612;2022-12-07T10:09:14;4.63;;;1.80;;
21901;SDS011;11115;46.038;14.612;2022-12-07T10:14:30;2.80;;;2.00;;
21901;SDS011;11115;46.038;14.612;2022-12-07T10:22:38;6.60;;;3.23;;
21901;SDS011;11115;46.038;14.612;2022-12-07T10:25:23;5.63;;;2.30;;
21901;SDS011;11115;46.038;14.612;2022-12-07T10:31:21;2.83;;;2.17;;
21901;SDS011;11115;46.038;14.612;2022-12-07T10:33:38;8.40;;;3.07;;
21901;SDS011;11115;46.038;14.612;2022-12-07T10:39:01;6.83;;;3.40;;
21901;SDS011;11115;46.038;14.612;2022-12-07T10:44:27;4.80;;;2.43;;
21901;SDS011;11115;46.038;14.612;2022-12-07T10:54:51;3.22;;;2.03;;
21901;SDS011;11115;46.038;14.612;2022-12-07T11:00:31;5.93;;;3.00;;
21901;SDS011;11115;46.038;14.612;2022-12-07T11:08:33;4.53;;;2.30;;
21901;SDS011;11115;46.038;14.612;2022-12-07T11:11:09;6.87;;;3.30;;
21901;SDS011;11115;46.038;14.612;2022-12-07T11:30:19;12.77;;;3.20;;
21901;SDS011;11115;46.038;14.612;2022-12-07T11:33:11;7.37;;;3.33;;
21901;SDS011;11115;46.038;14.612;2022-12-07T11:38:54;6.57;;;2.33;;
21901;SDS011;11115;46.038;14.612;2022-12-07T11:41:35;3.13;;;2.07;;
21901;SDS011;11115;46.038;14.612;2022-12-07T11:44:07;5.73;;;2.67;;
21901;SDS011;11115;46.038;14.612;2022-12-07T11:46:58;6.10;;;2.93;;
21901;SDS011;11115;46.038;14.612;2022-12-07T11:49:40;5.55;;;2.83;;
21901;SDS011;11115;46.038;14.612;2022-12-07T11:55:23;11.93;;;3.10;;
21901;SDS011;11115;46.038;14.612;2022-12-07T11:58:04;5.23;;;2.60;;
21901;SDS011;11115;46.038;14.612;2022-12-07T12:00:40;5.23;;;2.47;;
21901;SDS011;11115;46.038;14.612;2022-12-07T12:03:15;4.93;;;2.73;;
21901;SDS011;11115;46.038;14.612;2022-12-07T12:08:21;5.40;;;3.63;;
21901;SDS011;11115;46.038;14.612;2022-12-07T12:22:43;3.63;;;2.33;;
21901;SDS011;11115;46.038;14.612;2022-12-07T12:25:57;5.90;;;2.67;;
21901;SDS011;11115;46.038;14.612;2022-12-07T12:31:43;7.07;;;4.75;;
21901;SDS011;11115;46.038;14.612;2022-12-07T12:33:55;9.73;;;2.60;;
21901;SDS011;11115;46.038;14.612;2022-12-07T12:36:25;7.63;;;2.27;;
21901;SDS011;11115;46.038;14.612;2022-12-07T12:51:48;2.37;;;1.73;;
21901;SDS011;11115;46.038;14.612;2022-12-07T12:57:39;6.13;;;3.47;;
21901;SDS011;11115;46.038;14.612;2022-12-07T13:02:54;7.03;;;2.50;;
21901;SDS011;11115;46.038;14.612;2022-12-07T13:05:26;4.68;;;2.40;;
21901;SDS011;11115;46.038;14.612;2022-12-07T13:10:34;6.33;;;2.73;;
21901;SDS011;11115;46.038;14.612;2022-12-07T13:23:38;5.13;;;2.47;;
21901;SDS011;11115;46.038;14.612;2022-12-07T13:28:51;9.97;;;3.80;;
21901;SDS011;11115;46.038;14.612;2022-12-07T13:31:33;7.83;;;3.33;;
21901;SDS011;11115;46.038;14.612;2022-12-07T13:37:10;7.83;;;3.33;;
21901;SDS011;11115;46.038;14.612;2022-12-07T13:39:47;11.83;;;4.20;;
21901;SDS011;11115;46.038;14.612;2022-12-07T13:42:28;7.27;;;3.20;;
21901;SDS011;11115;46.038;14.612;2022-12-07T13:44:58;8.23;;;2.40;;
21901;SDS011;11115;46.038;14.612;2022-12-07T13:47:41;4.93;;;2.83;;
21901;SDS011;11115;46.038;14.612;2022-12-07T13:50:25;3.60;;;2.33;;
21901;SDS011;11115;46.038;14.612;2022-12-07T13:52:56;7.20;;;3.50;;
21901;SDS011;11115;46.038;14.612;2022-12-07T13:55:25;12.50;;;3.10;;
21901;SDS011;11115;46.038;14.612;2022-12-07T13:57:54;6.20;;;3.40;;
21901;SDS011;11115;46.038;14.612;2022-12-07T14:00:27;7.37;;;2.43;;
21901;SDS011;11115;46.038;14.612;2022-12-07T14:05:31;5.17;;;2.73;;
21901;SDS011;11115;46.038;14.612;2022-12-07T14:08:04;5.20;;;2.67;;
21901;SDS011;11115;46.038;14.612;2022-12-07T14:13:32;6.73;;;3.07;;
21901;SDS011;11115;46.038;14.612;2022-12-07T14:16:01;5.10;;;2.77;;
21901;SDS011;11115;46.038;14.612;2022-12-07T14:18:37;8.40;;;2.80;;
21901;SDS011;11115;46.038;14.612;2022-12-07T14:23:38;2.40;;;1.97;;
21901;SDS011;11115;46.038;14.612;2022-12-07T14:26:08;8.57;;;2.70;;
21901;SDS011;11115;46.038;14.612;2022-12-07T14:28:40;8.47;;;2.83;;
21901;SDS011;11115;46.038;14.612;2022-12-07T14:31:13;6.37;;;3.43;;
21901;SDS011;11115;46.038;14.612;2022-12-07T14:33:58;5.53;;;2.40;;
21901;SDS011;11115;46.038;14.612;2022-12-07T14:36:26;4.70;;;2.05;;
21901;SDS011;11115;46.038;14.612;2022-12-07T14:38:54;4.07;;;2.80;;
21901;SDS011;11115;46.038;14.612;2022-12-07T14:41:24;4.90;;;2.80;;
21901;SDS011;11115;46.038;14.612;2022-12-07T14:44:10;6.50;;;2.90;;
21901;SDS011;11115;46.038;14.612;2022-12-07T14:46:59;6.57;;;3.00;;
21901;SDS011;11115;46.038;14.612;2022-12-07T14:49:47;7.53;;;3.70;;
21901;SDS011;11115;46.038;14.612;2022-12-07T14:52:16;7.80;;;3.27;;
21901;SDS011;11115;46.038;14.612;2022-12-07T14:57:42;9.33;;;2.83;;
21901;SDS011;11115;46.038;14.612;2022-12-07T15:00:13;3.20;;;1.97;;
21901;SDS011;11115;46.038;14.612;2022-12-07T15:02:42;2.77;;;2.20;;
21901;SDS011;11115;46.038;14.612;2022-12-07T15:05:11;4.07;;;2.53;;
21901;SDS011;11115;46.038;14.612;2022-12-07T15:07:42;4.60;;;2.37;;
21901;SDS011;11115;46.038;14.612;2022-12-07T15:12:50;5.00;;;3.20;;
21901;SDS011;11115;46.038;14.612;2022-12-07T15:15:18;4.57;;;2.90;;
21901;SDS011;11115;46.038;14.612;2022-12-07T15:17:46;6.60;;;2.57;;
21901;SDS011;11115;46.038;14.612;2022-12-07T15:20:14;13.90;;;2.27;;
21901;SDS011;11115;46.038;14.612;2022-12-07T15:22:43;3.77;;;2.50;;
21901;SDS011;11115;46.038;14.612;2022-12-07T15:25:14;5.30;;;2.20;;
21901;SDS011;11115;46.038;14.612;2022-12-07T15:27:42;7.78;;;2.38;;
21901;SDS011;11115;46.038;14.612;2022-12-07T15:30:10;7.87;;;2.57;;
21901;SDS011;11115;46.038;14.612;2022-12-07T15:32:38;5.10;;;2.53;;
21901;SDS011;11115;46.038;14.612;2022-12-07T15:35:06;5.80;;;3.13;;
21901;SDS011;11115;46.038;14.612;2022-12-07T15:37:34;3.57;;;2.17;;
21901;SDS011;11115;46.038;14.612;2022-12-07T15:40:02;8.13;;;3.43;;
21901;SDS011;11115;46.038;14.612;2022-12-07T15:42:33;7.47;;;2.60;;
21901;SDS011;11115;46.038;14.612;2022-12-07T15:45:03;1.80;;;1.60;;
21901;SDS011;11115;46.038;14.612;2022-12-07T15:47:33;4.00;;;2.20;;
21901;SDS011;11115;46.038;14.612;2022-12-07T15:50:23;5.50;;;2.23;;
21901;SDS011;11115;46.038;14.612;2022-12-07T15:52:51;6.97;;;2.53;;
21901;SDS011;11115;46.038;14.612;2022-12-07T15:55:18;3.97;;;2.00;;
21901;SDS011;11115;46.038;14.612;2022-12-07T15:57:46;4.00;;;2.20;;
21901;SDS011;11115;46.038;14.612;2022-12-07T16:00:15;6.73;;;3.47;;
21901;SDS011;11115;46.038;14.612;2022-12-07T16:02:43;6.27;;;3.30;;
21901;SDS011;11115;46.038;14.612;2022-12-07T16:05:11;5.00;;;2.87;;
21901;SDS011;11115;46.038;14.612;2022-12-07T16:07:39;6.53;;;3.03;;
21901;SDS011;11115;46.038;14.612;2022-12-07T16:10:07;11.53;;;3.23;;
21901;SDS011;11115;46.038;14.612;2022-12-07T16:12:35;7.50;;;2.87;;
21901;SDS011;11115;46.038;14.612;2022-12-07T16:15:02;4.83;;;2.47;;
21901;SDS011;11115;46.038;14.612;2022-12-07T16:17:31;6.70;;;2.93;;
21901;SDS011;11115;46.038;14.612;2022-12-07T16:19:59;3.13;;;2.60;;
21901;SDS011;11115;46.038;14.612;2022-12-07T16:22:26;3.00;;;2.10;;
21901;SDS011;11115;46.038;14.612;2022-12-07T16:24:54;4.23;;;2.13;;
21901;SDS011;11115;46.038;14.612;2022-12-07T16:27:22;3.70;;;2.03;;
21901;SDS011;11115;46.038;14.612;2022-12-07T16:29:49;4.53;;;2.70;;
21901;SDS011;11115;46.038;14.612;2022-12-07T16:32:17;6.10;;;2.60;;
21901;SDS011;11115;46.038;14.612;2022-12-07T16:34:45;4.20;;;2.33;;
21901;SDS011;11115;46.038;14.612;2022-12-07T16:37:13;4.47;;;3.00;;
21901;SDS011;11115;46.038;14.612;2022-12-07T16:39:41;7.63;;;3.50;;
21901;SDS011;11115;46.038;14.612;2022-12-07T16:42:08;5.77;;;2.97;;
21901;SDS011;11115;46.038;14.612;2022-12-07T16:44:36;10.13;;;4.80;;
21901;SDS011;11115;46.038;14.612;2022-12-07T16:47:04;13.47;;;5.70;;
21901;SDS011;11115;46.038;14.612;2022-12-07T16:49:32;10.77;;;3.90;;
21901;SDS011;11115;46.038;14.612;2022-12-07T16:51:59;14.63;;;4.17;;
21901;SDS011;11115;46.038;14.612;2022-12-07T16:54:45;11.63;;;4.97;;
21901;SDS011;11115;46.038;14.612;2022-12-07T16:57:13;6.57;;;2.73;;
21901;SDS011;11115;46.038;14.612;2022-12-07T16:59:48;1.97;;;1.77;;
21901;SDS011;11115;46.038;14.612;2022-12-07T17:02:16;13.57;;;3.50;;
21901;SDS011;11115;46.038;14.612;2022-12-07T17:04:44;5.37;;;2.47;;
21901;SDS011;11115;46.038;14.612;2022-12-07T17:07:11;5.23;;;3.20;;
21901;SDS011;11115;46.038;14.612;2022-12-07T17:09:39;8.63;;;3.47;;
21901;SDS011;11115;46.038;14.612;2022-12-07T17:12:07;8.23;;;3.43;;
21901;SDS011;11115;46.038;14.612;2022-12-07T17:14:35;9.37;;;3.13;;
21901;SDS011;11115;46.038;14.612;2022-12-07T17:17:20;5.00;;;2.47;;
21901;SDS011;11115;46.038;14.612;2022-12-07T17:19:48;5.67;;;3.07;;
21901;SDS011;11115;46.038;14.612;2022-12-07T17:22:15;4.53;;;3.10;;
21901;SDS011;11115;46.038;14.612;2022-12-07T17:24:43;10.47;;;3.17;;